• Join FlightAware (Why Join?)
  • Login
  • US Flag 
03:21PM EST


 

Airport Tracker/Info


-or-


 

Live Flight TrackerFlight Track Log ✈ DAL1283 ✈ 28-Apr-2013 ✈ KMSP - KIND

Flight Track Log - Related Links

Times and Time Zones

All times are in EDT time to prevent confusion due to time zone crossing. See the DAL1283 flight status page for this flight to view local times or setup timezone preferences in your user account.

Time Position Orientation Groundspeed Altitude Reporting Facility
EDT Latitude Longitude Course Direction KTS MPH feet Rate Location/Type
06:49PM 44.8247 -93.2283 120° Southeast 184 212 3,000  Level Minneapolis Center
06:50PM 44.7481 -93.2156 173° South 250 288 6,500 3,180 Climbing Minneapolis Center
06:51PM 44.6728 -93.2422 194° South 283 326 9,600 2,940 Climbing Minneapolis Center
06:52PM 44.6156 -93.1550 133° Southeast 331 381 12,600 2,100 Climbing Minneapolis Center
06:53PM 44.4103 -92.6180 120° Southeast  Level FlightAware Approximate
06:53PM 44.5694 -93.0242 116° Southeast 385 443 14,000  Level Minneapolis Center
06:54PM 44.3465 -92.4649 120° Southeast  Level FlightAware Approximate
06:54PM 44.5069 -92.8514 117° Southeast 416 479 18,200  Level Minneapolis Center
06:55PM 44.4564 -92.7167 118° Southeast 398 458 20,800 2,160 Climbing Minneapolis Center
06:56PM 44.3972 -92.5792 121° Southeast 411 473 22,700 1,320 Climbing Minneapolis Center
06:57PM 44.3322 -92.4294 121° Southeast 445 512 23,600 1,080 Climbing Minneapolis Center
06:58PM 44.2633 -92.2700 121° Southeast 475 547 25,000 1,500 Climbing Minneapolis Center
06:59PM 44.1922 -92.1075 121° Southeast 491 565 26,700 1,560 Climbing Minneapolis Center
07:00PM 44.1197 -91.9453 122° Southeast 495 570 28,300 1,860 Climbing Minneapolis Center
07:01PM 44.0344 -91.7492 121° Southeast 495 570 30,600 1,920 Climbing Minneapolis Center
07:02PM 43.9683 -91.5986 121° Southeast 491 565 32,300 1,140 Climbing Minneapolis Center
07:03PM 43.8950 -91.4464 124° Southeast 483 556 33,000 300 Climbing Minneapolis Center
07:04PM 43.8022 -91.3156 134° Southeast 480 552 33,000  Level Minneapolis Center
07:05PM 43.7067 -91.1850 135° Southeast 483 556 33,000  Level Minneapolis Center
07:06PM 43.5944 -91.0286 135° Southeast 481 554 33,000  Level Minneapolis Center
07:07PM 43.5025 -90.9003 135° Southeast 476 548 33,000  Level Minneapolis Center
07:08PM 43.4092 -90.7714 135° Southeast 477 549 33,000  Level Minneapolis Center
07:09PM 43.3156 -90.6431 135° Southeast 477 549 33,000  Level Minneapolis Center
07:10PM 43.2228 -90.5158 135° Southeast 479 551 33,000  Level Chicago Center
07:11PM 43.1294 -90.3894 135° Southeast 476 548 33,000  Level Chicago Center
07:12PM 43.0181 -90.2381 135° Southeast 473 544 33,000  Level Chicago Center
07:13PM 42.9236 -90.1106 135° Southeast 478 550 33,000  Level Chicago Center
07:15PM 42.8297 -89.9844 135° Southeast 479 551 33,000  Level Chicago Center
07:16PM 42.7267 -89.8469 136° Southeast 477 549 33,000  Level Chicago Center
07:17PM 42.6314 -89.7222 136° Southeast 475 547 33,000  Level Chicago Center
07:18PM 42.5364 -89.5956 135° Southeast 478 550 33,000  Level Chicago Center
07:19PM 42.4247 -89.4497 136° Southeast 479 551 33,000  Level Chicago Center
07:20PM 42.3297 -89.3261 136° Southeast 476 548 33,000  Level Chicago Center
07:21PM 42.2344 -89.2017 136° Southeast 478 550 33,000  Level Chicago Center
07:22PM 42.1389 -89.0761 136° Southeast 479 551 33,000  Level Chicago Center
07:23PM 42.0492 -88.9589 136° Southeast 479 551 33,000  Level Chicago Center
07:24PM 41.9358 -88.8131 136° Southeast 474 545 33,000  Level Chicago Center
07:25PM 41.8414 -88.6922 136° Southeast 472 543 33,000  Level Chicago Center
07:26PM 41.7469 -88.5706 136° Southeast 474 545 33,000 -60 Level Chicago Center
07:27PM 41.6511 -88.4497 137° Southeast 477 549 32,900 -540 Descending Chicago Center
07:28PM 41.5556 -88.3297 137° Southeast 477 549 32,000 -1,140 Descending Chicago Center
07:29PM 41.4244 -88.2214 148° Southeast 472 543 30,600 -1,200 Descending Chicago Center
07:30PM 41.3153 -88.1350 149° Southeast 473 544 29,600 -780 Descending Chicago Center
07:31PM 41.2047 -88.0464 149° Southeast 476 548 29,000 -300 Descending Chicago Center
07:32PM 41.0706 -87.9400 149° Southeast 474 545 29,000 -600 Level Chicago Center
07:33PM 40.9578 -87.8511 149° Southeast 474 545 27,800 -1,260 Descending Chicago Center
07:34PM 40.8431 -87.7608 149° Southeast 482 555 26,500 -1,440 Descending Chicago Center
07:35PM 40.7281 -87.6689 149° Southeast 486 559 24,900 -1,620 Descending Chicago Center
07:36PM 40.6253 -87.5550 140° Southeast 487 560 23,200 -1,680 Descending Chicago Center
07:37PM 40.5192 -87.3928 131° Southeast 490 564 21,500 -1,560 Descending Chicago Center
07:38PM 40.4311 -87.2614 131° Southeast 475 547 20,000 -1,260 Descending Chicago Center
07:39PM 40.3461 -87.1386 132° Southeast 450 518 19,000 -1,680 Descending Chicago Center
07:40PM 40.2631 -87.0194 132° Southeast 440 506 16,600 -2,580 Descending Chicago Center
07:41PM 40.1833 -86.9022 132° Southeast 429 494 13,700 -1,800 Descending Chicago Center
07:42PM 40.1228 -86.7756 122° Southeast 411 473 13,000 -540 Descending Chicago Center
07:43PM 40.0783 -86.6450 114° Southeast 392 451 12,700 -1,020 Descending Chicago Center
07:44PM 40.0356 -86.5225 114° Southeast 371 427 11,000 -1,500 Descending Chicago Center
07:46PM 39.9922 -86.4000 115° Southeast 314 361 9,600 -1,500 Descending Chicago Center
07:46PM 39.9833 -86.3667 109° East 292 336 9,100 -1,560 Descending Indianapolis TRACON
07:47PM 39.9581 -86.3006 116° Southeast 300 345 8,000 -1,260 Descending Chicago Center
07:49PM 39.9200 -86.1350 107° East 229 264 5,700 -1,320 Descending Chicago Center
07:50PM 39.8944 -86.0725 118° Southeast 221 254 4,000 -840 Descending Chicago Center
07:51PM 39.8500 -86.1167 217° Southwest 170 196 4,000 -360 Level Indianapolis TRACON
07:52PM 39.8167 -86.1667 229° Southwest 169 194 3,300 -660 Descending Indianapolis TRACON